Time;durP1;ratioP1;P1;durP2;ratioP2;P2;SDS_P1;SDS_P2;PMS_P1;PMS_P2;Temp;Humidity;BMP_temperature;BMP_pressure;BME280_temperature;BME280_humidity;BME280_pressure;Samples;Min_cycle;Max_cycle;Signal;HPM_P1;HPM_P2
2023/03/13 07:21:35;;;;;;;1.00;0.83;;;11.40;98.60;;;;;;5153623;27;20625;-81
2023/03/13 07:25:58;;;;;;;1.40;1.07;;;11.10;97.40;;;;;;5133676;27;20634;-78
2023/03/13 07:29:42;;;;;;;0.93;0.73;;;11.80;99.90;;;;;;5132269;27;20293;-81
2023/03/13 07:32:07;;;;;;;2.10;1.10;;;11.70;97.40;;;;;;5132413;27;20175;-79
2023/03/13 07:34:33;;;;;;;5.97;2.77;;;12.20;99.90;;;;;;5132829;27;20530;-80
2023/03/13 07:36:59;;;;;;;1.87;1.27;;;11.80;97.10;;;;;;5132928;27;20181;-79
2023/03/13 07:39:24;;;;;;;1.83;1.40;;;11.90;95.80;;;;;;5133470;28;20293;-80
2023/03/13 07:41:50;;;;;;;3.83;2.00;;;12.00;99.20;;;;;;5132730;28;20179;-79
2023/03/13 07:44:16;;;;;;;0.70;0.50;;;11.70;99.90;;;;;;5134193;27;20660;-80
2023/03/13 07:46:42;;;;;;;1.90;0.93;;;;;;;;;;5134857;27;20171;-81
2023/03/13 08:48:33;;;;;;;0.50;0.50;;;;;;;;;;5112793;28;20183;-79
2023/03/13 08:51:04;;;;;;;0.40;0.40;;;13.00;95.20;;;;;;5094205;28;20266;-81
2023/03/13 08:53:31;;;;;;;1.80;0.50;;;13.10;95.20;;;;;;5093909;28;20637;-82
2023/03/13 08:55:57;;;;;;;1.07;0.80;;;14.00;94.60;;;;;;5112076;28;20172;-79
2023/03/13 08:58:23;;;;;;;0.50;0.50;;;14.60;92.50;;;;;;5112260;28;20240;-78
2023/03/13 09:00:49;;;;;;;0.90;0.40;;;15.60;85.90;;;;;;5111844;28;20688;-81
2023/03/13 09:03:14;;;;;;;0.50;0.40;;;15.60;88.10;;;;;;5112090;28;20192;-82
2023/03/13 09:05:40;;;;;;;0.60;0.60;;;15.60;85.40;;;;;;5112049;28;20179;-81
2023/03/13 09:08:06;;;;;;;0.40;0.40;;;15.40;86.30;;;;;;5093656;28;20631;-79
2023/03/13 09:10:32;;;;;;;1.00;0.60;;;15.10;87.20;;;;;;5111872;28;20188;-79
2023/03/13 09:12:58;;;;;;;0.50;0.50;;;14.80;88.20;;;;;;5111639;28;20587;-84
2023/03/13 09:15:23;;;;;;;0.50;0.50;;;14.80;89.60;;;;;;5111916;28;20636;-81
2023/03/13 09:17:49;;;;;;;0.40;0.40;;;14.80;90.30;;;;;;5111811;28;20225;-81
2023/03/13 09:20:15;;;;;;;0.70;0.67;;;14.70;90.80;;;;;;5111801;28;20247;-80
2023/03/13 09:22:40;;;;;;;0.70;0.50;;;14.60;90.40;;;;;;5111396;28;20222;-81
2023/03/13 09:25:06;;;;;;;0.70;0.50;;;14.70;90.70;;;;;;5111631;28;20197;-79
2023/03/13 09:27:32;;;;;;;0.60;0.60;;;14.70;90.30;;;;;;5093475;28;20172;-80
2023/03/13 09:29:58;;;;;;;1.87;0.70;;;14.60;91.00;;;;;;5093753;28;20199;-82
2023/03/13 09:32:24;;;;;;;0.70;0.50;;;14.80;91.40;;;;;;5111504;28;20181;-80
2023/03/13 09:34:49;;;;;;;0.90;0.70;;;15.00;91.20;;;;;;5105418;28;20175;-79
2023/03/13 09:37:15;;;;;;;1.10;1.00;;;15.10;91.50;;;;;;5098260;28;20260;-81
2023/03/13 09:39:40;;;;;;;0.60;0.60;;;15.10;92.00;;;;;;5079574;28;20241;-79
2023/03/13 09:42:15;;;;;;;0.47;0.47;;;14.90;91.20;;;;;;5080389;28;20169;-80
2023/03/13 09:44:48;;;;;;;0.70;0.60;;;15.10;91.40;;;;;;5080366;28;20172;-79
2023/03/13 09:47:27;;;;;;;11.20;6.47;;;15.30;92.10;;;;;;5099000;28;20256;-80
2023/03/13 09:50:09;;;;;;;8.03;4.13;;;15.50;91.50;;;;;;5100498;28;20185;-82
2023/03/13 09:52:42;;;;;;;29.10;16.80;;;15.80;90.70;;;;;;5083216;28;20165;-82
2023/03/13 09:55:24;;;;;;;0.63;0.63;;;16.30;90.20;;;;;;5079651;28;20258;-81
2023/03/13 09:58:23;;;;;;;0.83;0.80;;;16.30;87.50;;;;;;5097526;28;20154;-81
2023/03/13 10:00:59;;;;;;;0.67;0.60;;;15.80;88.00;;;;;;5089017;28;20267;-80
2023/03/13 10:03:27;;;;;;;0.93;0.70;;;15.40;88.60;;;;;;5099443;28;20199;-82
2023/03/13 10:05:58;;;;;;;0.80;0.50;;;15.30;88.40;;;;;;5098795;28;20175;-80
2023/03/13 10:08:26;;;;;;;1.53;0.80;;;15.20;89.70;;;;;;5098859;28;20589;-82
2023/03/13 10:11:13;;;;;;;1.20;0.50;;;15.40;90.40;;;;;;5101662;28;20244;-80
2023/03/13 10:14:03;;;;;;;0.50;0.50;;;15.40;91.00;;;;;;5082632;28;20208;-82
2023/03/13 10:16:41;;;;;;;1.50;0.60;;;15.60;92.00;;;;;;5098496;28;20196;-79
2023/03/13 10:19:29;;;;;;;0.97;0.70;;;15.70;92.90;;;;;;5081074;28;20193;-80
2023/03/13 10:21:56;;;;;;;0.77;0.67;;;15.80;93.30;;;;;;5098613;28;20165;-80
2023/03/13 10:24:39;;;;;;;1.47;1.00;;;15.80;94.00;;;;;;5080258;28;20231;-80
2023/03/13 10:27:04;;;;;;;0.60;0.60;;;15.80;94.60;;;;;;5081167;28;20167;-83
2023/03/13 10:29:31;;;;;;;1.47;0.77;;;15.80;94.70;;;;;;5080557;28;20197;-82
2023/03/13 10:31:59;;;;;;;0.87;0.70;;;15.80;95.00;;;;;;5099336;28;20840;-81
2023/03/13 10:34:26;;;;;;;0.50;0.50;;;16.10;95.20;;;;;;5081796;28;20178;-82
2023/03/13 10:37:00;;;;;;;0.60;0.60;;;16.50;94.60;;;;;;5099435;28;20593;-83
2023/03/13 10:39:28;;;;;;;0.57;0.57;;;16.90;93.50;;;;;;5103903;28;20210;-82
2023/03/13 10:42:32;;;;;;;2.20;0.70;;;16.70;93.50;;;;;;5110693;28;20175;-83
2023/03/13 10:45:00;;;;;;;0.60;0.60;;;16.90;93.30;;;;;;5079509;28;20220;-79
2023/03/13 10:47:26;;;;;;;0.60;0.60;;;16.80;93.60;;;;;;5101278;28;20183;-79
2023/03/13 10:49:56;;;;;;;2.13;0.87;;;17.10;93.40;;;;;;5085029;28;20206;-82
2023/03/13 10:52:42;;;;;;;1.07;0.90;;;17.20;93.10;;;;;;5103299;28;20197;-83
2023/03/13 10:55:16;;;;;;;3.20;0.60;;;17.40;93.30;;;;;;5084619;28;20179;-83
2023/03/13 10:58:00;;;;;;;0.63;0.60;;;17.80;93.60;;;;;;5084723;28;20172;-81
2023/03/13 11:00:37;;;;;;;1.00;0.60;;;18.10;92.10;;;;;;5098551;28;20196;-81
2023/03/13 11:03:13;;;;;;;1.40;0.60;;;17.40;92.40;;;;;;5097481;28;20263;-80
2023/03/13 11:05:42;;;;;;;0.70;0.70;;;17.50;92.80;;;;;;5109817;28;20171;-78
2023/03/13 11:08:26;;;;;;;0.70;0.60;;;17.50;92.80;;;;;;5111490;28;20164;-82
2023/03/13 11:11:03;;;;;;;1.63;0.70;;;17.80;92.60;;;;;;5095009;28;20172;-79
2023/03/13 11:13:49;;;;;;;0.87;0.70;;;17.40;92.80;;;;;;5085048;28;20179;-82
2023/03/13 11:16:21;;;;;;;0.97;0.87;;;17.50;93.20;;;;;;5109081;28;20188;-82
2023/03/13 11:19:12;;;;;;;1.57;0.70;;;17.60;93.20;;;;;;5102394;28;20199;-82
2023/03/13 11:21:59;;;;;;;1.10;1.00;;;17.90;93.10;;;;;;5095683;28;20174;-81
2023/03/13 11:24:47;;;;;;;0.90;0.73;;;17.90;92.60;;;;;;5095591;28;20207;-80
2023/03/13 11:27:45;;;;;;;1.53;1.20;;;18.50;91.80;;;;;;5080445;28;20175;-82
2023/03/13 11:30:32;;;;;;;1.57;0.90;;;18.30;91.80;;;;;;5081967;28;20199;-83
2023/03/13 11:33:09;;;;;;;1.77;1.00;;;18.40;92.20;;;;;;5095418;28;20617;-81
2023/03/13 11:35:58;;;;;;;1.60;1.00;;;18.80;91.60;;;;;;5077702;28;20171;-80
2023/03/13 11:38:35;;;;;;;1.10;1.00;;;18.90;91.30;;;;;;5098701;28;20165;-84
2023/03/13 11:41:12;;;;;;;2.53;1.07;;;18.70;90.80;;;;;;5095934;28;20167;-82
2023/03/13 11:43:59;;;;;;;1.10;0.80;;;18.90;91.80;;;;;;5095176;28;20240;-81
2023/03/13 11:46:27;;;;;;;2.73;1.03;;;19.10;90.90;;;;;;5078076;28;20167;-83
2023/03/13 11:49:09;;;;;;;1.37;0.97;;;19.10;91.30;;;;;;5095767;28;20192;-80
2023/03/13 11:51:45;;;;;;;2.47;0.87;;;18.80;90.90;;;;;;5077611;28;20161;-80
2023/03/13 11:54:36;;;;;;;1.33;0.87;;;18.80;90.70;;;;;;5078396;28;20170;-83
2023/03/13 11:57:29;;;;;;;2.77;1.60;;;18.80;91.10;;;;;;5095925;28;20176;-82
2023/03/13 12:00:16;;;;;;;4.67;3.43;;;18.80;91.20;;;;;;5077289;28;20745;-83
2023/03/13 12:02:48;;;;;;;3.10;1.10;;;19.10;91.10;;;;;;5077526;28;20288;-82
2023/03/13 12:05:18;;;;;;;1.23;0.90;;;19.50;90.90;;;;;;5078269;28;20178;-82
2023/03/13 12:08:03;;;;;;;1.80;1.10;;;19.60;90.30;;;;;;5096415;28;20159;-79
2023/03/13 12:10:32;;;;;;;2.73;1.40;;;19.80;89.70;;;;;;5095422;28;20237;-82
2023/03/13 12:13:13;;;;;;;3.63;1.30;;;19.40;89.40;;;;;;5095740;28;20256;-80
2023/03/13 12:15:45;;;;;;;2.67;0.90;;;19.10;90.20;;;;;;5096817;28;20162;-82
2023/03/13 12:18:18;;;;;;;1.23;0.70;;;19.50;90.30;;;;;;5096829;28;20177;-78
2023/03/13 12:20:56;;;;;;;1.67;1.33;;;20.10;89.70;;;;;;5096580;28;20200;-82
2023/03/13 12:23:37;;;;;;;1.57;0.93;;;20.00;89.80;;;;;;5095361;28;20197;-83
2023/03/13 12:26:20;;;;;;;1.43;0.80;;;20.10;88.80;;;;;;5096127;28;20173;-81
2023/03/13 12:29:03;;;;;;;1.43;0.90;;;20.30;89.40;;;;;;5095741;28;20233;-82
2023/03/13 12:31:46;;;;;;;3.83;0.90;;;21.00;88.20;;;;;;5078304;28;20255;-80
2023/03/13 12:34:18;;;;;;;2.40;0.87;;;21.00;85.60;;;;;;5095918;28;20631;-82
2023/03/13 12:37:07;;;;;;;3.17;0.90;;;20.70;87.10;;;;;;5077548;28;20308;-83
2023/03/13 12:39:54;;;;;;;1.33;0.70;;;21.00;87.40;;;;;;5095325;28;20224;-78
2023/03/13 12:42:40;;;;;;;0.90;0.63;;;21.20;86.90;;;;;;5095631;28;20155;-83
2023/03/13 12:45:13;;;;;;;1.77;0.70;;;21.70;87.60;;;;;;5096483;28;20637;-80
2023/03/13 12:48:08;;;;;;;1.00;0.60;;;22.00;83.00;;;;;;5078402;28;20175;-77
2023/03/13 12:50:36;;;;;;;1.80;1.20;;;21.90;84.70;;;;;;5094703;28;20228;-78
2023/03/13 12:53:33;;;;;;;2.93;0.80;;;22.00;83.60;;;;;;5075965;28;20222;-78
2023/03/13 12:56:17;;;;;;;1.57;1.13;;;22.10;82.50;;;;;;5076274;28;20179;-78
2023/03/13 12:58:56;;;;;;;2.53;1.80;;;21.50;82.50;;;;;;5076281;28;20218;-76
2023/03/13 13:01:33;;;;;;;7.67;4.60;;;20.90;82.80;;;;;;5095243;28;20271;-78
2023/03/13 13:04:14;;;;;;;17.13;9.47;;;20.80;84.50;;;;;;5096727;28;20682;-77
2023/03/13 13:07:02;;;;;;;13.53;7.73;;;21.10;83.80;;;;;;5096471;28;20649;-77
2023/03/13 13:09:38;;;;;;;8.50;5.83;;;21.40;84.20;;;;;;5095129;28;20685;-78
2023/03/13 13:12:23;;;;;;;5.43;3.00;;;21.60;82.00;;;;;;5097790;28;20201;-78
2023/03/13 13:14:49;;;;;;;6.17;4.37;;;21.70;82.60;;;;;;5097547;28;20234;-77
2023/03/13 13:17:18;;;;;;;7.53;4.80;;;22.30;80.60;;;;;;5097781;28;20197;-78
2023/03/13 13:19:46;;;;;;;7.70;3.10;;;22.60;81.00;;;;;;5098404;28;20553;-79
2023/03/13 13:22:36;;;;;;;1.73;1.53;;;23.40;76.90;;;;;;5098313;28;20228;-80
2023/03/13 13:25:17;;;;;;;6.27;3.70;;;23.80;77.60;;;;;;5098290;28;20183;-79
2023/03/13 13:27:42;;;;;;;4.27;0.90;;;23.50;76.60;;;;;;5100377;28;20168;-79
2023/03/13 13:30:17;;;;;;;1.47;0.73;;;23.40;76.40;;;;;;5099285;28;20189;-78
2023/03/13 13:32:53;;;;;;;1.60;1.10;;;22.80;75.60;;;;;;5079320;28;20684;-77
2023/03/13 13:35:33;;;;;;;0.60;0.60;;;22.80;76.40;;;;;;5098542;28;20608;-78
2023/03/13 13:38:19;;;;;;;0.80;0.70;;;23.00;75.30;;;;;;5079572;28;20169;-79
2023/03/13 13:41:02;;;;;;;0.70;0.50;;;23.30;73.10;;;;;;5079868;28;20211;-78
2023/03/13 13:43:33;;;;;;;3.17;1.30;;;23.30;72.80;;;;;;5097178;28;20190;-78
2023/03/13 13:46:01;;;;;;;0.83;0.50;;;23.40;72.60;;;;;;5096755;28;20496;-77
2023/03/13 13:48:29;;;;;;;1.07;0.70;;;23.70;72.20;;;;;;5097057;28;20185;-77
2023/03/13 13:51:14;;;;;;;1.67;1.10;;;24.20;69.90;;;;;;5096622;28;20184;-79
2023/03/13 13:53:52;;;;;;;0.50;0.40;;;23.50;70.90;;;;;;5079982;28;20196;-78
2023/03/13 13:56:27;;;;;;;0.87;0.60;;;23.30;74.10;;;;;;5098300;28;20176;-78
2023/03/13 13:59:02;;;;;;;0.63;0.60;;;24.30;71.90;;;;;;5098062;28;20277;-78
2023/03/13 14:01:29;;;;;;;1.27;0.50;;;24.90;68.90;;;;;;5097600;28;20171;-78
2023/03/13 14:04:35;;;;;;;0.60;0.50;;;24.40;68.80;;;;;;5097244;28;20202;-77
2023/03/13 14:07:03;;;;;;;3.53;0.80;;;24.60;68.60;;;;;;4996843;28;20183;-79
2023/03/13 14:09:37;;;;;;;0.83;0.70;;;24.70;69.20;;;;;;5078223;28;20217;-80
2023/03/13 14:12:31;;;;;;;0.60;0.50;;;24.90;68.80;;;;;;5097607;28;20304;-79
2023/03/13 14:15:22;;;;;;;1.23;0.70;;;24.90;65.30;;;;;;5079861;28;20199;-78
2023/03/13 14:17:49;;;;;;;0.73;0.53;;;24.10;65.80;;;;;;5098286;28;20625;-77
2023/03/13 14:20:23;;;;;;;0.80;0.60;;;23.70;64.60;;;;;;5079391;28;20194;-78
2023/03/13 14:22:50;;;;;;;0.87;0.57;;;23.40;66.50;;;;;;5097526;28;20213;-79
2023/03/13 14:25:16;;;;;;;2.10;0.50;;;23.40;65.80;;;;;;5097547;28;20238;-79
2023/03/13 14:27:47;;;;;;;0.90;0.60;;;23.00;66.50;;;;;;5096998;28;20534;-78
2023/03/13 14:30:17;;;;;;;0.70;0.50;;;22.60;67.20;;;;;;5097203;28;20214;-79
2023/03/13 14:32:43;;;;;;;1.67;0.70;;;22.50;68.60;;;;;;5096992;28;20239;-78
2023/03/13 14:35:12;;;;;;;0.70;0.70;;;22.60;68.40;;;;;;5103921;28;20191;-78
2023/03/13 14:37:48;;;;;;;1.33;0.70;;;22.90;67.10;;;;;;5113090;28;20175;-79
2023/03/13 14:40:17;;;;;;;1.57;0.70;;;22.70;66.70;;;;;;5115707;28;20189;-79
2023/03/13 14:42:51;;;;;;;1.33;0.90;;;22.00;69.50;;;;;;5097486;28;20177;-77
2023/03/13 14:45:36;;;;;;;0.93;0.70;;;21.50;69.30;;;;;;5118638;28;20168;-78
2023/03/13 14:48:30;;;;;;;1.87;0.60;;;20.80;70.60;;;;;;5115541;28;20156;-78
2023/03/13 14:51:16;;;;;;;2.00;0.70;;;20.20;72.10;;;;;;5090467;28;20226;-78
2023/03/13 14:53:57;;;;;;;0.70;0.60;;;19.40;73.40;;;;;;5110759;28;20231;-78
2023/03/13 14:56:41;;;;;;;0.70;0.70;;;18.90;74.50;;;;;;5114425;28;20167;-78
2023/03/13 14:59:22;;;;;;;1.80;0.97;;;18.80;76.90;;;;;;5114829;28;20189;-78
2023/03/13 15:02:01;;;;;;;1.50;1.00;;;18.90;75.50;;;;;;5109554;28;20217;-77
2023/03/13 15:05:02;;;;;;;2.03;0.90;;;18.90;75.60;;;;;;5096868;28;20204;-78
2023/03/13 15:07:51;;;;;;;1.30;1.20;;;18.90;75.40;;;;;;5112228;28;20194;-78
2023/03/13 15:10:39;;;;;;;3.27;1.20;;;18.70;77.10;;;;;;5114549;28;20195;-79
2023/03/13 15:13:25;;;;;;;1.40;1.17;;;18.70;76.50;;;;;;5093509;28;20176;-78
2023/03/13 15:15:52;;;;;;;1.27;1.00;;;18.70;76.70;;;;;;5091896;28;20178;-78
2023/03/13 15:18:23;;;;;;;2.57;0.70;;;18.70;78.00;;;;;;5106290;28;20172;-77
2023/03/13 15:20:52;;;;;;;2.67;0.90;;;18.70;76.40;;;;;;5107468;28;20194;-78
2023/03/13 15:23:18;;;;;;;1.37;0.80;;;18.70;77.00;;;;;;5108654;28;20602;-78
2023/03/13 15:25:44;;;;;;;1.57;0.90;;;18.50;77.10;;;;;;5110968;28;20178;-77
2023/03/13 15:28:18;;;;;;;1.20;0.80;;;18.40;77.60;;;;;;5111691;28;20186;-78
2023/03/13 15:30:45;;;;;;;0.87;0.67;;;18.40;77.90;;;;;;5109961;28;20233;-77
2023/03/13 15:33:19;;;;;;;1.27;0.90;;;18.40;78.10;;;;;;5108341;28;20190;-77
2023/03/13 15:35:45;;;;;;;1.23;0.67;;;18.50;77.20;;;;;;5113476;28;20218;-77
2023/03/13 15:38:17;;;;;;;1.87;0.83;;;18.50;75.80;;;;;;5094002;28;20179;-77
2023/03/13 15:40:43;;;;;;;1.43;0.80;;;18.40;75.40;;;;;;5109257;28;20200;-77
2023/03/13 15:43:10;;;;;;;1.47;0.60;;;18.30;77.20;;;;;;5092551;28;20624;-77
2023/03/13 15:45:41;;;;;;;1.77;0.70;;;18.20;76.20;;;;;;5108298;28;20184;-78
2023/03/13 15:48:26;;;;;;;1.43;0.80;;;18.10;77.40;;;;;;5107553;28;20230;-77
2023/03/13 15:50:54;;;;;;;2.30;1.03;;;18.00;77.40;;;;;;5109147;28;20150;-77
2023/03/13 15:53:26;;;;;;;1.20;0.90;;;17.90;77.70;;;;;;5106638;28;20180;-77
2023/03/13 15:55:53;;;;;;;2.13;1.10;;;17.80;77.80;;;;;;5087552;28;20179;-77
2023/03/13 15:58:19;;;;;;;1.70;1.20;;;17.70;77.30;;;;;;5087652;28;20172;-77
2023/03/13 16:00:47;;;;;;;3.80;0.80;;;17.60;77.40;;;;;;5107466;28;20196;-78
2023/03/13 16:03:19;;;;;;;1.67;0.90;;;17.60;77.70;;;;;;5102353;28;20192;-77
2023/03/13 16:05:46;;;;;;;2.73;1.00;;;17.60;77.60;;;;;;5105728;28;20218;-77
2023/03/13 16:08:15;;;;;;;2.70;0.90;;;17.60;78.00;;;;;;5095513;28;20255;-78
2023/03/13 16:10:41;;;;;;;2.63;1.10;;;17.60;78.20;;;;;;5095536;28;20275;-78
2023/03/13 16:13:07;;;;;;;2.57;1.30;;;17.60;79.70;;;;;;5077540;28;20176;-78
2023/03/13 16:15:34;;;;;;;2.13;1.10;;;17.60;81.10;;;;;;5095260;28;20305;-78
2023/03/13 16:18:00;;;;;;;2.30;1.40;;;17.50;82.00;;;;;;5077429;28;20254;-77
2023/03/13 16:20:27;;;;;;;1.67;1.03;;;17.50;82.40;;;;;;5078003;28;20200;-79
2023/03/13 16:22:54;;;;;;;4.00;0.80;;;17.40;82.40;;;;;;5093529;28;20735;-76
2023/03/13 16:25:20;;;;;;;2.97;1.20;;;17.40;82.50;;;;;;5094229;28;20176;-78
2023/03/13 16:57:23;;;;;;;1.23;0.77;;;16.30;88.50;;;;;;5134706;27;20277;-79
